createdAt,value
2022-11-18T00:01:17.043Z,19.25
2022-11-18T00:03:43.918Z,17.48
2022-11-18T00:06:12.355Z,17.30
2022-11-18T00:08:39.167Z,17.40
2022-11-18T00:11:36.718Z,16.52
2022-11-18T00:14:23.324Z,15.65
2022-11-18T00:16:58.303Z,17.25
2022-11-18T00:19:26.874Z,17.43
2022-11-18T00:21:54.073Z,16.48
2022-11-18T00:24:20.860Z,17.17
2022-11-18T00:26:48.163Z,16.13
2022-11-18T00:29:15.171Z,19.27
2022-11-18T00:31:42.495Z,17.65
2022-11-18T00:34:11.508Z,17.80
2022-11-18T00:36:39.086Z,16.38
2022-11-18T00:39:05.778Z,17.17
2022-11-18T00:41:51.033Z,17.85
2022-11-18T00:44:17.751Z,16.75
2022-11-18T00:46:45.314Z,16.38
2022-11-18T00:49:12.008Z,19.20
2022-11-18T00:51:39.183Z,15.38
2022-11-18T00:54:06.010Z,20.00
2022-11-18T00:56:33.198Z,17.63
2022-11-18T00:59:00.022Z,17.63
2022-11-18T01:01:27.092Z,15.93
2022-11-18T01:03:53.863Z,14.82
2022-11-18T01:06:20.943Z,17.58
2022-11-18T01:08:47.700Z,17.90
2022-11-18T01:11:33.434Z,17.00
2022-11-18T01:14:00.137Z,17.05
2022-11-18T01:16:27.741Z,15.80
2022-11-18T01:18:54.529Z,16.25
2022-11-18T01:21:21.744Z,20.17
2022-11-18T01:23:48.606Z,16.05
2022-11-18T01:26:16.139Z,16.38
2022-11-18T01:28:43.041Z,17.95
2022-11-18T01:31:14.926Z,16.17
2022-11-18T01:33:42.069Z,18.05
2022-11-18T01:36:16.546Z,16.30
2022-11-18T01:38:43.281Z,15.43
2022-11-18T01:41:10.346Z,16.00
2022-11-18T01:44:02.137Z,16.05
2022-11-18T01:46:31.033Z,15.05
2022-11-18T01:49:04.498Z,14.65
2022-11-18T01:51:33.756Z,18.73
2022-11-18T01:54:03.694Z,16.52
2022-11-18T01:56:40.981Z,17.25
2022-11-18T01:59:15.852Z,16.25
2022-11-18T02:01:43.215Z,16.05
2022-11-18T02:04:10.092Z,15.77
2022-11-18T02:06:37.388Z,16.10
2022-11-18T02:09:04.492Z,14.30
2022-11-18T02:11:50.160Z,14.63
2022-11-18T02:14:18.365Z,17.48
2022-11-18T02:16:54.068Z,18.77
2022-11-18T02:22:40.557Z,13.60
2022-11-18T02:25:19.211Z,17.20
2022-11-18T02:27:58.015Z,16.60
2022-11-18T02:30:24.795Z,18.55
2022-11-18T02:33:00.297Z,16.90
2022-11-18T02:35:29.766Z,16.98
2022-11-18T02:38:05.977Z,15.07
2022-11-18T02:40:34.854Z,17.60
2022-11-18T02:43:04.815Z,14.18
2022-11-18T02:45:31.574Z,14.00
2022-11-18T02:48:01.318Z,14.13
2022-11-18T02:50:28.071Z,18.83
2022-11-18T02:52:57.728Z,19.30
2022-11-18T02:55:24.536Z,17.70
2022-11-18T02:57:51.673Z,18.20
2022-11-18T03:00:18.493Z,16.75
2022-11-18T03:02:47.542Z,15.50
2022-11-18T03:05:46.654Z,15.93
2022-11-18T03:08:15.462Z,15.15
2022-11-18T03:11:15.893Z,17.20
2022-11-18T03:14:11.085Z,13.88
2022-11-18T03:17:02.298Z,14.40
2022-11-18T03:19:31.984Z,14.18
2022-11-18T03:22:01.809Z,16.80
2022-11-18T03:24:33.294Z,14.57
2022-11-18T03:27:13.843Z,15.65
2022-11-18T03:29:58.558Z,14.98
2022-11-18T03:32:27.122Z,14.32
2022-11-18T03:34:57.824Z,16.70
2022-11-18T03:37:24.642Z,19.45
2022-11-18T03:39:57.047Z,13.88
2022-11-18T03:42:25.007Z,16.13
2022-11-18T03:44:55.893Z,13.90
2022-11-18T03:47:27.189Z,16.42
2022-11-18T03:49:58.085Z,15.07
2022-11-18T03:52:27.065Z,15.55
2022-11-18T03:54:55.070Z,15.43
2022-11-18T03:57:25.777Z,17.80
2022-11-18T03:59:56.889Z,16.42
2022-11-18T04:02:23.986Z,15.77
2022-11-18T04:04:51.895Z,18.23
2022-11-18T04:07:22.283Z,17.50
2022-11-18T04:09:57.823Z,14.55
2022-11-18T04:12:24.602Z,14.93
2022-11-18T04:14:55.470Z,17.55
2022-11-18T04:17:23.532Z,18.23
2022-11-18T04:19:50.587Z,18.60
2022-11-18T04:22:19.231Z,16.88
2022-11-18T04:24:46.264Z,15.10
2022-11-18T04:27:13.269Z,19.27
2022-11-18T04:29:40.270Z,16.55
2022-11-18T04:32:07.012Z,18.38
2022-11-18T04:34:34.047Z,15.73
2022-11-18T04:37:00.888Z,15.07
2022-11-18T04:39:28.169Z,14.25
2022-11-18T04:41:57.931Z,15.60
2022-11-18T04:44:32.213Z,17.25
2022-11-18T04:47:00.452Z,15.55
2022-11-18T04:49:27.788Z,16.73
2022-11-18T04:51:54.829Z,18.48
2022-11-18T04:54:22.054Z,16.38
2022-11-18T04:56:49.824Z,16.20
2022-11-18T04:59:19.150Z,13.32
2022-11-18T05:01:46.324Z,16.15
2022-11-18T05:04:14.771Z,18.23
2022-11-18T05:06:41.509Z,15.35
2022-11-18T05:09:09.598Z,13.70
2022-11-18T05:11:55.044Z,17.23
2022-11-18T05:16:48.754Z,17.33
2022-11-18T05:19:16.333Z,14.32
2022-11-18T05:21:43.292Z,17.25
2022-11-18T05:24:10.274Z,15.88
2022-11-18T05:26:37.082Z,17.58
2022-11-18T05:29:04.097Z,17.08
2022-11-18T05:31:30.866Z,15.57
2022-11-18T05:33:57.898Z,17.45
2022-11-18T05:36:24.699Z,15.45
2022-11-18T05:38:51.774Z,17.10
2022-11-18T05:41:37.403Z,14.18
2022-11-18T05:44:04.893Z,15.80
2022-11-18T05:46:31.656Z,19.08
2022-11-18T05:48:58.670Z,15.13
2022-11-18T05:51:25.386Z,16.75
2022-11-18T05:53:52.687Z,19.02
2022-11-18T05:56:25.611Z,17.58
2022-11-18T05:58:52.686Z,16.05
2022-11-18T06:01:28.041Z,16.75
2022-11-18T06:03:55.062Z,17.60
2022-11-18T06:06:22.934Z,15.38
2022-11-18T06:09:02.863Z,17.05
2022-11-18T06:11:35.923Z,17.77
2022-11-18T06:14:05.269Z,17.02
2022-11-18T06:16:35.331Z,15.60
2022-11-18T06:19:04.985Z,16.02
2022-11-18T06:21:31.692Z,16.70
2022-11-18T06:23:58.932Z,14.32
2022-11-18T06:26:25.722Z,16.90
2022-11-18T06:28:52.765Z,17.17
2022-11-18T06:31:19.591Z,15.77
2022-11-18T06:33:46.609Z,18.15
2022-11-18T06:36:13.329Z,15.20
2022-11-18T06:38:40.372Z,15.57
2022-11-18T06:41:07.145Z,14.15
2022-11-18T06:43:41.392Z,16.65
2022-11-18T06:46:29.017Z,17.77
2022-11-18T06:48:56.307Z,16.15
2022-11-18T06:51:23.547Z,14.07
2022-11-18T06:53:50.813Z,14.95
2022-11-18T06:56:18.421Z,16.65
2022-11-18T06:58:45.704Z,14.15
2022-11-18T07:01:14.434Z,15.38
2022-11-18T07:03:41.726Z,15.65
2022-11-18T07:06:08.621Z,14.27
2022-11-18T07:08:37.048Z,15.43
2022-11-18T07:11:08.323Z,12.93
2022-11-18T07:13:40.572Z,13.15
2022-11-18T07:16:21.637Z,13.88
2022-11-18T07:18:49.550Z,13.63
2022-11-18T07:21:24.149Z,15.85
2022-11-18T07:23:51.330Z,14.48
2022-11-18T07:26:18.200Z,15.20
2022-11-18T07:28:45.368Z,14.95
2022-11-18T07:31:13.657Z,13.52
2022-11-18T07:33:41.240Z,20.00
2022-11-18T07:36:12.695Z,17.02
2022-11-18T07:38:39.922Z,14.23
2022-11-18T07:41:13.744Z,17.98
2022-11-18T07:43:41.102Z,18.67
2022-11-18T07:46:11.510Z,14.52
2022-11-18T07:48:38.528Z,16.50
2022-11-18T07:51:05.425Z,15.15
2022-11-18T07:53:33.147Z,15.30
2022-11-18T07:56:00.160Z,16.65
2022-11-18T07:58:27.297Z,12.95
2022-11-18T08:00:54.040Z,14.38
2022-11-18T08:03:27.891Z,12.88
2022-11-18T08:06:01.476Z,12.90
2022-11-18T08:08:28.528Z,16.35
2022-11-18T08:10:57.121Z,15.45
2022-11-18T08:13:24.650Z,13.35
2022-11-18T08:15:51.445Z,13.65
2022-11-18T08:18:18.665Z,15.02
2022-11-18T08:20:45.382Z,17.00
2022-11-18T08:23:13.100Z,17.23
2022-11-18T08:25:40.537Z,14.23
2022-11-18T08:28:07.826Z,16.38
2022-11-18T08:30:34.799Z,15.63
2022-11-18T08:33:02.072Z,17.70
2022-11-18T08:35:29.383Z,15.45
2022-11-18T08:37:56.539Z,16.35
2022-11-18T08:40:23.731Z,16.30
2022-11-18T08:42:50.774Z,15.07
2022-11-18T08:45:17.582Z,17.73
2022-11-18T08:47:44.579Z,16.15
2022-11-18T08:50:11.531Z,19.02
2022-11-18T08:52:38.689Z,19.88
2022-11-18T08:55:05.755Z,15.30
2022-11-18T08:57:32.728Z,16.98
2022-11-18T08:59:59.530Z,20.45
2022-11-18T09:02:26.660Z,17.02
2022-11-18T09:04:53.644Z,15.98
2022-11-18T09:07:21.423Z,17.38
2022-11-18T09:09:48.238Z,20.30
2022-11-18T09:12:17.631Z,17.33
2022-11-18T09:17:32.184Z,21.13
2022-11-18T09:20:17.424Z,18.80
2022-11-18T09:22:44.187Z,18.45
2022-11-18T09:25:11.216Z,20.05
2022-11-18T09:27:37.936Z,20.98
2022-11-18T09:30:05.649Z,21.15
2022-11-18T09:32:33.261Z,17.80
2022-11-18T09:35:00.360Z,21.35
2022-11-18T09:37:27.065Z,20.75
2022-11-18T09:39:54.096Z,21.60
2022-11-18T09:42:37.951Z,21.17
2022-11-18T09:45:24.540Z,20.70
2022-11-18T09:47:51.614Z,19.77
2022-11-18T09:53:19.165Z,20.10
2022-11-18T09:55:46.176Z,22.17
2022-11-18T09:58:18.277Z,19.65
2022-11-18T10:00:46.746Z,19.58
2022-11-18T10:03:37.975Z,20.75
2022-11-18T10:06:31.180Z,20.95
2022-11-18T10:09:16.825Z,20.63
2022-11-18T10:12:05.211Z,20.25
2022-11-18T10:15:06.293Z,24.80
2022-11-18T10:17:54.870Z,20.00
2022-11-18T10:20:29.159Z,22.23
2022-11-18T10:23:14.684Z,21.63
2022-11-18T10:25:41.437Z,21.85
2022-11-18T10:28:15.715Z,21.15
2022-11-18T10:30:42.497Z,22.20
2022-11-18T10:33:21.477Z,21.20
2022-11-18T10:35:48.379Z,19.80
2022-11-18T10:38:15.356Z,22.35
2022-11-18T10:41:03.856Z,18.88
2022-11-18T10:43:45.907Z,21.23
2022-11-18T10:46:32.685Z,22.83
2022-11-18T10:49:09.037Z,21.48
2022-11-18T10:51:36.991Z,21.88
2022-11-18T10:54:23.220Z,24.45
2022-11-18T10:56:58.073Z,21.70
2022-11-18T10:59:46.674Z,25.00
2022-11-18T11:02:31.892Z,26.50
2022-11-18T11:05:03.665Z,27.52
2022-11-18T11:07:37.047Z,27.27
2022-11-18T11:10:10.335Z,26.00
2022-11-18T11:12:38.600Z,29.27
2022-11-18T11:15:09.243Z,28.98
2022-11-18T11:17:42.180Z,34.15
2022-11-18T11:20:21.916Z,31.20
2022-11-18T11:22:48.826Z,36.20
2022-11-18T11:25:22.774Z,34.95
2022-11-18T11:28:20.229Z,33.72
2022-11-18T11:31:22.091Z,31.25
2022-11-18T11:34:05.134Z,32.47
2022-11-18T11:36:50.477Z,34.50
2022-11-18T11:39:35.981Z,36.80
2022-11-18T11:44:42.759Z,35.25
2022-11-18T11:47:43.828Z,35.13
2022-11-18T11:50:16.551Z,35.60
2022-11-18T11:53:14.504Z,36.53
2022-11-18T11:56:10.271Z,33.20
2022-11-18T12:01:28.042Z,36.40
2022-11-18T12:06:57.430Z,40.70
2022-11-18T12:09:39.755Z,37.72
2022-11-18T12:12:35.839Z,36.90
2022-11-18T12:15:19.114Z,34.83
2022-11-18T12:18:23.706Z,39.50
2022-11-18T12:20:52.319Z,38.55
2022-11-18T12:23:20.594Z,38.30
2022-11-18T12:25:47.598Z,37.05
2022-11-18T12:28:32.839Z,41.47
2022-11-18T12:31:18.297Z,36.20
2022-11-18T12:33:51.302Z,40.53
2022-11-18T12:36:44.894Z,36.83
2022-11-18T12:39:23.650Z,37.72
2022-11-18T12:42:09.075Z,36.72
2022-11-18T12:44:36.058Z,38.80
2022-11-18T12:47:03.778Z,41.47
2022-11-18T12:49:30.469Z,32.25
2022-11-18T12:52:00.400Z,41.63
2022-11-18T12:54:46.425Z,39.17
2022-11-18T12:57:28.226Z,38.25
2022-11-18T12:59:55.032Z,35.28
2022-11-18T13:02:29.448Z,34.75
2022-11-18T13:05:08.284Z,32.42
2022-11-18T13:08:04.655Z,36.88
2022-11-18T13:10:33.373Z,33.90
2022-11-18T13:13:00.477Z,34.45
2022-11-18T13:15:45.805Z,34.70
2022-11-18T13:18:18.030Z,38.97
2022-11-18T13:20:56.457Z,34.47
2022-11-18T13:23:49.920Z,36.22
2022-11-18T13:26:26.910Z,35.65
2022-11-18T13:29:03.294Z,34.92
2022-11-18T13:31:33.060Z,36.90
2022-11-18T13:34:03.705Z,35.78
2022-11-18T13:36:31.358Z,34.97
2022-11-18T13:39:03.306Z,33.20
2022-11-18T13:41:33.875Z,36.45
2022-11-18T13:44:11.938Z,34.63
2022-11-18T13:46:39.817Z,36.83
2022-11-18T13:49:06.888Z,34.58
2022-11-18T13:51:33.597Z,33.97
2022-11-18T13:54:01.013Z,31.60
2022-11-18T13:56:34.410Z,34.58
2022-11-18T13:59:17.009Z,33.72
2022-11-18T14:01:44.873Z,32.13
2022-11-18T14:04:25.886Z,34.97
2022-11-18T14:06:52.665Z,32.25
2022-11-18T14:09:22.530Z,32.33
2022-11-18T14:12:01.540Z,33.00
2022-11-18T14:14:36.057Z,27.52
2022-11-18T14:17:15.167Z,33.47
2022-11-18T14:19:42.341Z,30.15
2022-11-18T14:22:14.873Z,32.92
2022-11-18T14:24:42.351Z,29.45
2022-11-18T14:27:51.228Z,32.60
2022-11-18T14:30:27.795Z,33.25
2022-11-18T14:33:15.494Z,27.83
2022-11-18T14:35:45.178Z,30.30
2022-11-18T14:38:57.612Z,27.42
2022-11-18T14:41:03.520Z,28.17
2022-11-18T14:43:30.245Z,26.98
2022-11-18T14:46:02.675Z,26.63
2022-11-18T14:48:32.455Z,27.77
2022-11-18T14:51:00.239Z,26.08
2022-11-18T14:53:27.075Z,26.52
2022-11-18T14:55:54.443Z,28.30
2022-11-18T14:58:21.215Z,26.10
2022-11-18T15:00:48.979Z,24.27
2022-11-18T15:03:15.946Z,25.10
2022-11-18T15:05:43.127Z,25.80
2022-11-18T15:08:09.875Z,28.63
2022-11-18T15:10:37.079Z,26.08
2022-11-18T15:13:03.807Z,28.90
2022-11-18T15:15:30.867Z,26.98
2022-11-18T15:17:57.549Z,26.55
2022-11-18T15:20:24.620Z,23.52
2022-11-18T15:22:51.368Z,26.35
2022-11-18T15:25:18.417Z,22.77
2022-11-18T15:27:45.158Z,22.15
2022-11-18T15:30:13.534Z,26.63
2022-11-18T15:32:40.624Z,26.77
2022-11-18T15:35:08.280Z,25.50
2022-11-18T15:37:34.987Z,27.67
2022-11-18T15:40:02.000Z,27.85
2022-11-18T15:42:28.682Z,27.67
2022-11-18T15:44:55.778Z,23.23
2022-11-18T15:47:22.515Z,24.55
2022-11-18T15:49:49.612Z,22.67
2022-11-18T15:52:17.079Z,25.40
2022-11-18T15:54:44.643Z,25.40
2022-11-18T15:57:11.408Z,23.77
2022-11-18T15:59:38.471Z,25.67
2022-11-18T16:02:06.046Z,24.02
2022-11-18T16:04:33.064Z,28.30
2022-11-18T16:07:01.157Z,23.65
2022-11-18T16:09:48.305Z,25.40
2022-11-18T16:12:33.774Z,24.05
2022-11-18T16:15:19.654Z,26.38
2022-11-18T16:17:46.386Z,26.00
2022-11-18T16:20:13.465Z,22.00
2022-11-18T16:22:40.144Z,24.70
2022-11-18T16:25:07.497Z,24.17
2022-11-18T16:27:35.910Z,24.95
2022-11-18T16:30:04.311Z,22.27
2022-11-18T16:32:31.078Z,23.83
2022-11-18T16:35:01.329Z,24.00
2022-11-18T16:37:28.487Z,23.55
2022-11-18T16:39:55.537Z,24.77
2022-11-18T16:42:22.554Z,23.55
2022-11-18T16:44:49.678Z,23.98
2022-11-18T16:47:16.510Z,22.40
2022-11-18T16:49:44.019Z,26.55
2022-11-18T16:52:10.809Z,23.50
2022-11-18T16:54:44.283Z,22.60
2022-11-18T16:57:11.882Z,26.55
2022-11-18T16:59:38.981Z,25.95
2022-11-18T17:02:06.259Z,24.83
2022-11-18T17:04:36.409Z,25.55
2022-11-18T17:07:03.721Z,22.73
2022-11-18T17:09:30.956Z,23.55
2022-11-18T17:11:58.709Z,22.67
2022-11-18T17:14:25.890Z,25.88
2022-11-18T17:16:52.733Z,26.27
2022-11-18T17:19:21.248Z,22.35
2022-11-18T17:21:48.197Z,22.85
2022-11-18T17:24:16.866Z,23.83
2022-11-18T17:26:43.954Z,24.35
2022-11-18T17:29:11.716Z,23.70
2022-11-18T17:31:38.760Z,24.65
2022-11-18T17:34:05.945Z,24.25
2022-11-18T17:36:32.712Z,22.27
2022-11-18T17:38:59.992Z,27.35
2022-11-18T17:41:46.182Z,27.60
2022-11-18T17:44:14.924Z,25.00
2022-11-18T17:46:41.749Z,24.33
2022-11-18T17:49:16.451Z,21.60
2022-11-18T17:51:43.360Z,23.27
2022-11-18T17:54:10.445Z,24.90
2022-11-18T17:56:37.194Z,25.70
2022-11-18T17:59:05.855Z,24.50
2022-11-18T18:01:32.636Z,25.90
2022-11-18T18:03:59.843Z,25.48
2022-11-18T18:06:27.008Z,23.50
2022-11-18T18:08:57.778Z,24.88
2022-11-18T18:11:24.661Z,27.65
2022-11-18T18:14:10.466Z,24.38
2022-11-18T18:16:37.357Z,24.90
2022-11-18T18:19:05.167Z,26.67
2022-11-18T18:21:32.214Z,27.65
2022-11-18T18:23:59.315Z,23.48
2022-11-18T18:26:31.222Z,28.55
2022-11-18T18:28:59.733Z,23.92
2022-11-18T18:31:26.810Z,27.75
2022-11-18T18:33:53.956Z,25.38
2022-11-18T18:36:21.737Z,24.00
2022-11-18T18:38:52.515Z,25.00
2022-11-18T18:41:20.797Z,26.55
2022-11-18T18:43:48.516Z,26.23
2022-11-18T18:46:30.085Z,24.45
2022-11-18T18:49:06.790Z,22.75
2022-11-18T18:51:38.492Z,24.25
2022-11-18T18:54:05.816Z,24.75
2022-11-18T18:56:32.812Z,27.27
2022-11-18T18:59:00.231Z,25.30
2022-11-18T19:01:27.813Z,25.17
2022-11-18T19:03:56.384Z,27.60
2022-11-18T19:09:17.541Z,27.40
2022-11-18T19:12:05.606Z,25.63
2022-11-18T19:14:41.499Z,26.52
2022-11-18T19:17:12.630Z,25.05
2022-11-18T19:19:59.824Z,25.98
2022-11-18T19:22:28.968Z,25.15
2022-11-18T19:24:58.298Z,24.23
2022-11-18T19:27:25.444Z,26.70
2022-11-18T19:29:52.507Z,22.65
2022-11-18T19:32:19.225Z,25.60
2022-11-18T19:34:46.272Z,26.88
2022-11-18T19:37:14.356Z,25.08
2022-11-18T19:39:41.447Z,26.83
2022-11-18T19:42:11.135Z,26.63
2022-11-18T19:44:40.201Z,22.88
2022-11-18T19:47:06.970Z,24.35
2022-11-18T19:49:34.089Z,27.38
2022-11-18T19:52:00.822Z,26.55
2022-11-18T19:54:28.931Z,24.63
2022-11-18T19:56:58.747Z,25.15
2022-11-18T19:59:25.808Z,26.17
2022-11-18T20:01:52.557Z,24.00
2022-11-18T20:04:19.655Z,20.95
2022-11-18T20:06:46.452Z,23.77
2022-11-18T20:09:13.635Z,23.38
2022-11-18T20:11:40.411Z,24.67
2022-11-18T20:14:08.401Z,23.48
2022-11-18T20:16:36.100Z,24.92
2022-11-18T20:19:09.349Z,22.75
2022-11-18T20:21:39.111Z,22.13
2022-11-18T20:24:07.671Z,21.85
2022-11-18T20:26:35.702Z,22.85
2022-11-18T20:29:02.766Z,26.58
2022-11-18T20:31:29.570Z,24.00
2022-11-18T20:33:56.660Z,21.25
2022-11-18T20:36:27.724Z,20.17
2022-11-18T20:38:56.118Z,22.77
2022-11-18T20:41:23.382Z,21.20
2022-11-18T20:43:50.427Z,19.63
2022-11-18T20:46:20.660Z,21.05
2022-11-18T20:48:48.706Z,22.27
2022-11-18T20:51:15.455Z,18.27
2022-11-18T20:53:42.873Z,19.50
2022-11-18T20:56:10.491Z,21.42
2022-11-18T20:58:37.702Z,16.60
2022-11-18T21:01:21.837Z,19.35
2022-11-18T21:03:56.386Z,19.90
2022-11-18T21:06:25.245Z,16.65
2022-11-18T21:08:56.376Z,21.08
2022-11-18T21:11:23.118Z,18.05
2022-11-18T21:14:08.416Z,18.80
2022-11-18T21:16:35.140Z,17.20
2022-11-18T21:19:02.235Z,20.05
2022-11-18T21:21:47.683Z,18.17
2022-11-18T21:26:46.143Z,18.83
2022-11-18T21:29:13.908Z,17.75
2022-11-18T21:31:41.010Z,17.52
2022-11-18T21:34:08.341Z,18.67
2022-11-18T21:36:37.007Z,19.38
2022-11-18T21:39:07.078Z,16.08
2022-11-18T21:41:34.803Z,17.13
2022-11-18T21:44:06.307Z,19.17
2022-11-18T21:46:37.410Z,17.90
2022-11-18T21:49:04.644Z,17.75
2022-11-18T21:51:32.224Z,18.25
2022-11-18T21:53:59.859Z,16.25
2022-11-18T21:56:31.166Z,17.80
2022-11-18T21:59:02.417Z,18.33
2022-11-18T22:01:31.095Z,19.58
2022-11-18T22:03:59.835Z,18.33
2022-11-18T22:06:29.651Z,17.35
2022-11-18T22:08:56.707Z,18.90
2022-11-18T22:11:24.219Z,17.73
2022-11-18T22:13:51.982Z,18.80
2022-11-18T22:16:20.283Z,19.95
2022-11-18T22:18:53.030Z,19.27
2022-11-18T22:21:23.194Z,20.92
2022-11-18T22:23:50.330Z,18.70
2022-11-18T22:26:18.744Z,16.52
2022-11-18T22:28:46.083Z,17.13
2022-11-18T22:31:14.400Z,17.67
2022-11-18T22:33:41.496Z,16.33
2022-11-18T22:36:10.467Z,17.98
2022-11-18T22:38:37.575Z,16.63
2022-11-18T22:41:05.424Z,20.23
2022-11-18T22:43:33.244Z,17.50
2022-11-18T22:46:04.435Z,18.52
2022-11-18T22:48:31.492Z,18.02
2022-11-18T22:51:02.557Z,17.55
2022-11-18T22:53:29.880Z,15.90
2022-11-18T22:56:06.545Z,14.48
2022-11-18T22:58:33.751Z,18.35
2022-11-18T23:01:04.846Z,16.10
2022-11-18T23:03:32.017Z,13.93
2022-11-18T23:05:58.864Z,19.20
2022-11-18T23:08:26.346Z,13.77
2022-11-18T23:10:53.265Z,15.80
2022-11-18T23:13:38.693Z,14.27
2022-11-18T23:16:05.752Z,15.57
2022-11-18T23:18:32.766Z,15.90
2022-11-18T23:21:00.661Z,17.05
2022-11-18T23:23:28.583Z,15.05
2022-11-18T23:25:55.590Z,15.93
2022-11-18T23:28:22.640Z,16.20
2022-11-18T23:30:49.388Z,11.82
2022-11-18T23:33:16.408Z,15.60
2022-11-18T23:35:43.116Z,15.18
2022-11-18T23:38:10.180Z,14.35
2022-11-18T23:40:36.936Z,11.98
2022-11-18T23:43:03.956Z,15.23
2022-11-18T23:45:30.872Z,14.70
2022-11-18T23:47:57.940Z,13.95
2022-11-18T23:50:24.624Z,12.30
2022-11-18T23:52:51.643Z,15.45
2022-11-18T23:55:18.382Z,13.77
2022-11-18T23:57:45.375Z,13.45
